createdAt,value
2022-12-18T00:01:22.739Z,5.40
2022-12-18T00:03:50.268Z,4.23
2022-12-18T00:06:17.643Z,3.20
2022-12-18T00:08:45.325Z,3.67
2022-12-18T00:11:14.219Z,3.37
2022-12-18T00:13:41.365Z,2.53
2022-12-18T00:16:11.965Z,7.43
2022-12-18T00:18:38.975Z,3.60
2022-12-18T00:21:08.584Z,4.10
2022-12-18T00:23:36.653Z,4.30
2022-12-18T00:26:05.638Z,6.77
2022-12-18T00:28:32.406Z,4.63
2022-12-18T00:31:02.125Z,3.77
2022-12-18T00:33:29.263Z,3.07
2022-12-18T00:35:55.854Z,2.20
2022-12-18T00:38:22.464Z,4.40
2022-12-18T00:40:49.072Z,2.43
2022-12-18T00:43:15.741Z,3.67
2022-12-18T00:45:42.491Z,2.30
2022-12-18T00:48:09.223Z,2.30
2022-12-18T00:50:35.845Z,5.27
2022-12-18T00:53:02.528Z,3.30
2022-12-18T00:55:29.319Z,1.97
2022-12-18T00:57:55.999Z,2.87
2022-12-18T01:00:23.339Z,4.53
2022-12-18T01:02:50.694Z,2.20
2022-12-18T01:05:17.776Z,3.33
2022-12-18T01:07:44.487Z,6.70
2022-12-18T01:10:12.915Z,3.17
2022-12-18T01:12:39.699Z,5.73
2022-12-18T01:15:07.591Z,3.97
2022-12-18T01:17:35.067Z,1.87
2022-12-18T01:20:01.805Z,5.43
2022-12-18T01:22:28.553Z,2.67
2022-12-18T01:24:55.232Z,1.80
2022-12-18T01:27:21.886Z,5.37
2022-12-18T01:29:48.530Z,2.40
2022-12-18T01:32:15.289Z,4.73
2022-12-18T01:34:42.185Z,7.20
2022-12-18T01:37:08.997Z,6.97
2022-12-18T01:39:35.635Z,5.53
2022-12-18T01:42:04.313Z,8.20
2022-12-18T01:44:52.715Z,5.23
2022-12-18T01:47:36.379Z,8.30
2022-12-18T01:50:08.777Z,3.33
2022-12-18T01:52:37.221Z,6.67
2022-12-18T01:55:06.221Z,3.57
2022-12-18T01:57:33.433Z,7.53
2022-12-18T02:00:14.866Z,6.63
2022-12-18T02:02:43.170Z,6.67
2022-12-18T02:05:11.817Z,7.87
2022-12-18T02:08:04.880Z,6.77
2022-12-18T02:11:05.350Z,5.23
2022-12-18T02:13:44.345Z,4.90
2022-12-18T02:16:25.511Z,4.70
2022-12-18T02:18:59.046Z,3.67
2022-12-18T02:21:28.647Z,8.10
2022-12-18T02:24:26.277Z,7.60
2022-12-18T02:26:57.923Z,4.07
2022-12-18T02:29:35.656Z,3.43
2022-12-18T02:32:04.190Z,5.93
2022-12-18T02:34:32.901Z,3.07
2022-12-18T02:37:01.625Z,4.07
2022-12-18T02:39:29.911Z,2.13
2022-12-18T02:41:56.549Z,4.43
2022-12-18T02:44:23.211Z,8.00
2022-12-18T02:46:54.435Z,3.77
2022-12-18T02:49:41.837Z,7.63
2022-12-18T02:52:39.529Z,4.73
2022-12-18T02:55:15.217Z,5.70
2022-12-18T02:57:45.918Z,7.90
2022-12-18T03:00:18.185Z,4.53
2022-12-18T03:02:50.231Z,3.40
2022-12-18T03:05:31.385Z,2.10
2022-12-18T03:08:02.209Z,2.63
2022-12-18T03:10:31.250Z,5.83
2022-12-18T03:13:21.121Z,3.80
2022-12-18T03:15:52.154Z,5.80
2022-12-18T03:18:24.441Z,2.57
2022-12-18T03:20:52.809Z,6.40
2022-12-18T03:23:26.094Z,5.30
2022-12-18T03:25:57.736Z,7.10
2022-12-18T03:28:24.757Z,7.53
2022-12-18T03:30:54.985Z,3.60
2022-12-18T03:33:27.590Z,6.70
2022-12-18T03:35:54.332Z,6.40
2022-12-18T03:38:21.146Z,3.17
2022-12-18T03:41:00.173Z,4.90
2022-12-18T03:43:26.859Z,2.40
2022-12-18T03:46:05.732Z,7.63
2022-12-18T03:48:49.381Z,4.47
2022-12-18T03:51:40.931Z,1.87
2022-12-18T03:54:09.345Z,3.40
2022-12-18T03:56:40.278Z,5.13
2022-12-18T03:59:07.320Z,3.53
2022-12-18T04:01:41.141Z,6.77
2022-12-18T04:04:09.810Z,6.67
2022-12-18T04:06:37.033Z,2.63
2022-12-18T04:09:03.945Z,3.93
2022-12-18T04:11:30.576Z,5.80
2022-12-18T04:13:58.960Z,2.70
2022-12-18T04:16:27.071Z,4.03
2022-12-18T04:18:54.810Z,4.60
2022-12-18T04:21:21.712Z,4.77
2022-12-18T04:23:48.382Z,5.37
2022-12-18T04:26:15.157Z,5.60
2022-12-18T04:28:41.785Z,4.60
2022-12-18T04:31:08.561Z,4.53
2022-12-18T04:33:35.328Z,1.83
2022-12-18T04:36:02.055Z,3.30
2022-12-18T04:38:28.787Z,3.03
2022-12-18T04:40:55.425Z,5.17
2022-12-18T04:43:22.155Z,2.57
2022-12-18T04:45:48.947Z,4.30
2022-12-18T04:48:15.745Z,2.90
2022-12-18T04:50:42.493Z,3.60
2022-12-18T04:53:09.347Z,4.93
2022-12-18T04:55:36.736Z,3.73
2022-12-18T04:58:03.509Z,2.93
2022-12-18T05:00:30.187Z,2.77
2022-12-18T05:02:56.959Z,4.80
2022-12-18T05:05:23.761Z,7.73
2022-12-18T05:07:50.367Z,3.33
2022-12-18T05:10:17.105Z,3.80
2022-12-18T05:13:02.281Z,5.30
2022-12-18T05:15:32.801Z,1.90
2022-12-18T05:17:59.987Z,5.57
2022-12-18T05:20:27.902Z,4.03
2022-12-18T05:22:55.265Z,3.00
2022-12-18T05:25:22.548Z,6.20
2022-12-18T05:27:49.499Z,5.40
2022-12-18T05:30:17.318Z,5.53
2022-12-18T05:32:44.260Z,4.40
2022-12-18T05:35:12.090Z,5.73
2022-12-18T05:37:42.948Z,6.13
2022-12-18T05:40:10.948Z,3.30
2022-12-18T05:42:37.710Z,4.70
2022-12-18T05:45:05.191Z,3.90
2022-12-18T05:47:31.789Z,10.43
2022-12-18T05:49:58.369Z,5.30
2022-12-18T05:52:25.531Z,7.23
2022-12-18T05:54:52.116Z,3.03
2022-12-18T05:57:18.781Z,3.87
2022-12-18T05:59:45.475Z,3.13
2022-12-18T06:02:12.158Z,2.53
2022-12-18T06:04:38.805Z,7.77
2022-12-18T06:07:05.380Z,5.80
2022-12-18T06:09:31.974Z,5.80
2022-12-18T06:11:58.598Z,6.10
2022-12-18T06:14:25.170Z,3.30
2022-12-18T06:16:53.324Z,4.13
2022-12-18T06:19:19.907Z,4.70
2022-12-18T06:21:46.801Z,4.90
2022-12-18T06:24:13.524Z,4.43
2022-12-18T06:26:40.369Z,7.00
2022-12-18T06:29:07.185Z,5.23
2022-12-18T06:31:34.094Z,5.80
2022-12-18T06:34:04.036Z,6.70
2022-12-18T06:36:30.938Z,7.50
2022-12-18T06:38:58.572Z,7.77
2022-12-18T06:41:25.378Z,9.50
2022-12-18T06:43:54.616Z,7.30
2022-12-18T06:46:24.860Z,19.73
2022-12-18T06:48:51.622Z,17.30
2022-12-18T06:51:20.102Z,12.97
2022-12-18T06:53:47.074Z,13.93
2022-12-18T06:56:13.688Z,16.40
2022-12-18T06:58:40.456Z,15.90
2022-12-18T07:01:10.184Z,10.33
2022-12-18T07:03:39.955Z,10.00
2022-12-18T07:06:07.391Z,5.57
2022-12-18T07:08:34.608Z,7.63
2022-12-18T07:11:04.807Z,11.90
2022-12-18T07:13:31.732Z,11.93
2022-12-18T07:16:08.602Z,8.40
2022-12-18T07:18:39.670Z,10.47
2022-12-18T07:21:08.063Z,11.00
2022-12-18T07:23:36.110Z,7.73
2022-12-18T07:26:13.262Z,21.50
2022-12-18T07:28:41.559Z,16.03
2022-12-18T07:31:13.280Z,14.00
2022-12-18T07:33:40.646Z,11.37
2022-12-18T07:36:08.911Z,12.23
2022-12-18T07:38:36.489Z,8.50
2022-12-18T07:41:07.523Z,7.13
2022-12-18T07:43:34.484Z,15.73
2022-12-18T07:46:01.494Z,3.60
2022-12-18T07:48:29.089Z,4.23
2022-12-18T07:51:02.831Z,5.17
2022-12-18T07:53:29.562Z,4.37
2022-12-18T07:56:26.062Z,4.77
2022-12-18T07:58:46.464Z,11.53
2022-12-18T08:01:15.137Z,7.77
2022-12-18T08:03:42.618Z,9.17
2022-12-18T08:06:10.980Z,9.30
2022-12-18T08:08:37.979Z,12.83
2022-12-18T08:11:04.829Z,9.90
2022-12-18T08:13:31.478Z,13.47
2022-12-18T08:15:59.700Z,11.97
2022-12-18T08:18:26.588Z,15.13
2022-12-18T08:20:53.415Z,24.50
2022-12-18T08:23:20.240Z,30.33
2022-12-18T08:25:47.118Z,22.70
2022-12-18T08:28:14.279Z,33.17
2022-12-18T08:30:41.088Z,32.33
2022-12-18T08:33:07.926Z,26.93
2022-12-18T08:35:42.496Z,23.80
2022-12-18T08:38:12.249Z,19.63
2022-12-18T08:40:38.926Z,18.23
2022-12-18T08:43:24.470Z,14.80
2022-12-18T08:45:51.697Z,16.07
2022-12-18T08:48:22.128Z,18.73
2022-12-18T08:50:59.037Z,14.20
2022-12-18T08:53:25.981Z,14.10
2022-12-18T08:55:53.119Z,17.27
2022-12-18T08:58:20.748Z,11.90
2022-12-18T09:00:47.421Z,15.87
2022-12-18T09:03:15.449Z,12.10
2022-12-18T09:05:42.387Z,12.80
2022-12-18T09:08:09.230Z,12.67
2022-12-18T09:10:43.640Z,19.90
2022-12-18T09:13:14.218Z,26.10
2022-12-18T09:15:54.542Z,16.63
2022-12-18T09:18:22.460Z,12.80
2022-12-18T09:20:49.299Z,18.43
2022-12-18T09:23:16.027Z,7.93
2022-12-18T09:25:42.779Z,10.83
2022-12-18T09:28:14.690Z,10.80
2022-12-18T09:30:51.074Z,13.37
2022-12-18T09:33:18.392Z,13.30
2022-12-18T09:35:46.142Z,15.40
2022-12-18T09:38:15.267Z,16.07
2022-12-18T09:40:53.949Z,14.20
2022-12-18T09:43:29.595Z,14.20
2022-12-18T09:46:03.024Z,11.37
2022-12-18T09:48:32.717Z,9.03
2022-12-18T09:51:13.939Z,10.53
2022-12-18T09:53:41.639Z,12.50
2022-12-18T09:56:13.929Z,9.37
2022-12-18T09:58:52.837Z,13.07
2022-12-18T10:01:24.243Z,8.30
2022-12-18T10:03:52.861Z,10.03
2022-12-18T10:06:39.361Z,5.77
2022-12-18T10:09:15.344Z,13.07
2022-12-18T10:11:54.729Z,4.43
2022-12-18T10:14:29.070Z,8.37
2022-12-18T10:17:03.468Z,7.03
2022-12-18T10:19:55.251Z,5.73
2022-12-18T10:22:49.561Z,7.80
2022-12-18T10:25:40.961Z,5.43
2022-12-18T10:28:15.978Z,6.40
2022-12-18T10:30:43.983Z,7.37
2022-12-18T10:33:28.495Z,4.00
2022-12-18T10:35:56.253Z,3.80
2022-12-18T10:38:42.652Z,8.33
2022-12-18T10:41:19.691Z,7.00
2022-12-18T10:43:49.002Z,5.23
2022-12-18T10:46:18.479Z,6.53
2022-12-18T10:48:48.375Z,7.23
2022-12-18T10:51:41.510Z,7.67
2022-12-18T10:54:20.276Z,12.17
2022-12-18T10:56:47.715Z,7.80
2022-12-18T10:59:18.786Z,7.93
2022-12-18T11:01:58.581Z,10.43
2022-12-18T11:04:36.408Z,6.07
2022-12-18T11:07:03.079Z,5.67
2022-12-18T11:09:32.944Z,9.50
2022-12-18T11:12:02.070Z,9.13
2022-12-18T11:14:49.068Z,8.67
2022-12-18T11:17:35.974Z,7.87
2022-12-18T11:20:05.838Z,6.97
2022-12-18T11:22:35.028Z,13.40
2022-12-18T11:25:32.663Z,10.30
2022-12-18T11:27:58.512Z,9.77
2022-12-18T11:30:36.849Z,9.27
2022-12-18T11:33:12.391Z,7.40
2022-12-18T11:35:53.307Z,6.57
2022-12-18T11:38:27.651Z,8.80
2022-12-18T11:41:22.239Z,5.33
2022-12-18T11:43:51.178Z,8.50
2022-12-18T11:46:40.563Z,6.30
2022-12-18T11:49:26.866Z,9.23
2022-12-18T11:52:12.330Z,8.60
2022-12-18T11:54:39.087Z,6.00
2022-12-18T11:57:36.227Z,5.10
2022-12-18T12:00:13.081Z,6.27
2022-12-18T12:02:58.602Z,4.90
2022-12-18T12:05:30.721Z,10.87
2022-12-18T12:08:18.756Z,8.67
2022-12-18T12:10:51.853Z,24.07
2022-12-18T12:13:34.078Z,9.07
2022-12-18T12:16:24.169Z,5.10
2022-12-18T12:19:03.351Z,5.90
2022-12-18T12:21:40.340Z,8.47
2022-12-18T12:24:30.166Z,4.80
2022-12-18T12:26:56.809Z,5.63
2022-12-18T12:29:33.019Z,6.60
2022-12-18T12:32:36.692Z,6.90
2022-12-18T12:35:22.051Z,8.13
2022-12-18T12:38:05.578Z,11.93
2022-12-18T12:41:02.502Z,8.83
2022-12-18T12:43:32.428Z,5.00
2022-12-18T12:46:05.423Z,5.63
2022-12-18T12:48:47.856Z,5.70
2022-12-18T12:51:20.991Z,8.13
2022-12-18T12:53:49.934Z,6.77
2022-12-18T12:56:19.607Z,8.13
2022-12-18T12:58:56.766Z,11.33
2022-12-18T13:01:38.493Z,11.20
2022-12-18T13:04:11.736Z,6.60
2022-12-18T13:07:25.958Z,3.90
2022-12-18T13:10:12.469Z,6.83
2022-12-18T13:13:05.427Z,6.37
2022-12-18T13:15:50.249Z,5.80
2022-12-18T13:18:25.193Z,9.03
2022-12-18T13:20:58.553Z,6.27
2022-12-18T13:23:33.459Z,7.73
2022-12-18T13:26:10.773Z,14.33
2022-12-18T13:28:49.202Z,8.87
2022-12-18T13:31:38.660Z,10.90
2022-12-18T13:34:26.144Z,7.90
2022-12-18T13:36:56.359Z,8.03
2022-12-18T13:39:30.277Z,8.00
2022-12-18T13:42:07.126Z,15.43
2022-12-18T13:44:40.687Z,5.00
2022-12-18T13:47:32.723Z,7.73
2022-12-18T13:50:00.249Z,4.93
2022-12-18T13:52:29.879Z,10.87
2022-12-18T13:54:58.117Z,10.90
2022-12-18T13:57:45.018Z,7.17
2022-12-18T14:00:29.929Z,14.90
2022-12-18T14:02:58.301Z,15.17
2022-12-18T14:05:26.759Z,20.13
2022-12-18T14:07:55.231Z,15.40
2022-12-18T14:10:44.427Z,16.83
2022-12-18T14:13:12.530Z,40.17
2022-12-18T14:15:48.666Z,26.80
2022-12-18T14:18:25.964Z,28.80
2022-12-18T14:20:55.921Z,24.27
2022-12-18T14:23:35.892Z,14.70
2022-12-18T14:26:06.271Z,16.37
2022-12-18T14:28:33.421Z,21.27
2022-12-18T14:31:00.239Z,10.97
2022-12-18T14:33:28.385Z,17.53
2022-12-18T14:35:56.616Z,14.10
2022-12-18T14:38:40.694Z,16.33
2022-12-18T14:41:12.248Z,78.83
2022-12-18T14:43:41.606Z,170.43
2022-12-18T14:46:40.069Z,121.60
2022-12-18T14:49:27.579Z,45.23
2022-12-18T14:51:56.810Z,32.23
2022-12-18T14:54:25.523Z,22.03
2022-12-18T14:57:03.318Z,19.40
2022-12-18T14:59:31.433Z,22.97
2022-12-18T15:02:19.738Z,25.90
2022-12-18T15:04:46.877Z,27.13
2022-12-18T15:07:16.109Z,27.97
2022-12-18T15:10:04.831Z,23.60
2022-12-18T15:12:45.818Z,23.73
2022-12-18T15:15:34.636Z,21.70
2022-12-18T15:18:13.377Z,21.03
2022-12-18T15:20:49.717Z,75.83
2022-12-18T15:23:25.978Z,74.67
2022-12-18T15:26:01.021Z,51.40
2022-12-18T15:28:33.830Z,37.50
2022-12-18T15:31:01.868Z,42.17
2022-12-18T15:33:33.602Z,54.63
2022-12-18T15:36:02.340Z,44.97
2022-12-18T15:38:29.356Z,45.03
2022-12-18T15:40:56.187Z,30.10
2022-12-18T15:43:36.858Z,29.70
2022-12-18T15:46:07.730Z,21.00
2022-12-18T15:48:36.903Z,18.63
2022-12-18T15:51:04.031Z,20.77
2022-12-18T15:53:33.094Z,21.97
2022-12-18T15:56:18.343Z,15.47
2022-12-18T15:58:45.239Z,16.10
2022-12-18T16:01:12.912Z,14.80
2022-12-18T16:03:40.105Z,16.77
2022-12-18T16:06:07.431Z,8.63
2022-12-18T16:08:34.228Z,10.67
2022-12-18T16:11:01.239Z,19.77
2022-12-18T16:13:27.923Z,8.33
2022-12-18T16:15:55.263Z,9.17
2022-12-18T16:18:22.455Z,13.20
2022-12-18T16:20:49.339Z,9.07
2022-12-18T16:23:16.265Z,9.07
2022-12-18T16:25:43.048Z,9.43
2022-12-18T16:28:09.829Z,10.47
2022-12-18T16:30:38.510Z,13.77
2022-12-18T16:33:05.932Z,4.43
2022-12-18T16:35:38.243Z,5.40
2022-12-18T16:38:05.256Z,6.87
2022-12-18T16:40:33.271Z,10.33
2022-12-18T16:43:00.294Z,10.00
2022-12-18T16:45:27.139Z,9.90
2022-12-18T16:47:54.187Z,10.87
2022-12-18T16:50:20.991Z,9.90
2022-12-18T16:52:49.215Z,8.00
2022-12-18T16:55:16.157Z,8.60
2022-12-18T16:57:45.025Z,20.40
2022-12-18T17:00:12.668Z,10.33
2022-12-18T17:02:39.748Z,10.03
2022-12-18T17:05:07.321Z,11.80
2022-12-18T17:07:34.181Z,11.30
2022-12-18T17:10:02.147Z,12.17
2022-12-18T17:12:31.169Z,11.53
2022-12-18T17:14:59.015Z,13.30
2022-12-18T17:17:25.957Z,9.80
2022-12-18T17:19:56.945Z,7.20
2022-12-18T17:22:28.951Z,13.30
2022-12-18T17:24:56.717Z,5.80
2022-12-18T17:27:25.498Z,9.70
2022-12-18T17:29:52.504Z,9.37
2022-12-18T17:32:19.497Z,10.37
2022-12-18T17:34:47.918Z,12.13
2022-12-18T17:37:24.507Z,17.97
2022-12-18T17:39:53.035Z,8.30
2022-12-18T17:42:28.554Z,5.60
2022-12-18T17:44:58.202Z,8.33
2022-12-18T17:47:37.609Z,8.90
2022-12-18T17:50:06.684Z,10.53
2022-12-18T17:52:34.762Z,12.23
2022-12-18T17:55:03.749Z,6.23
2022-12-18T17:57:32.068Z,15.00
2022-12-18T17:59:59.439Z,8.73
2022-12-18T18:02:26.270Z,9.30
2022-12-18T18:04:53.456Z,9.13
2022-12-18T18:07:20.189Z,12.10
2022-12-18T18:09:47.421Z,12.33
2022-12-18T18:12:32.988Z,8.93
2022-12-18T18:14:59.838Z,13.43
2022-12-18T18:17:26.579Z,10.60
2022-12-18T18:19:53.332Z,14.63
2022-12-18T18:22:20.242Z,28.93
2022-12-18T18:24:47.113Z,16.77
2022-12-18T18:27:13.802Z,6.60
2022-12-18T18:29:41.262Z,12.67
2022-12-18T18:32:07.971Z,11.63
2022-12-18T18:34:34.733Z,16.73
2022-12-18T18:37:02.194Z,11.33
2022-12-18T18:39:29.587Z,13.87
2022-12-18T18:41:56.309Z,13.30
2022-12-18T18:44:25.628Z,11.03
2022-12-18T18:46:57.601Z,9.60
2022-12-18T18:49:27.576Z,13.33
2022-12-18T18:51:55.017Z,9.60
2022-12-18T18:54:22.039Z,9.90
2022-12-18T18:57:19.270Z,8.30
2022-12-18T18:59:36.085Z,12.20
2022-12-18T19:02:04.236Z,8.40
2022-12-18T19:04:33.185Z,8.40
2022-12-18T19:06:59.840Z,8.27
2022-12-18T19:09:27.737Z,12.60
2022-12-18T19:12:13.819Z,12.90
2022-12-18T19:14:40.464Z,10.10
2022-12-18T19:17:07.179Z,7.87
2022-12-18T19:19:33.861Z,10.47
2022-12-18T19:22:00.671Z,12.80
2022-12-18T19:24:27.558Z,7.07
2022-12-18T19:26:56.660Z,6.97
2022-12-18T19:29:25.735Z,6.30
2022-12-18T19:31:52.890Z,10.37
2022-12-18T19:34:19.660Z,14.30
2022-12-18T19:36:46.860Z,10.50
2022-12-18T19:39:16.045Z,13.93
2022-12-18T19:41:43.176Z,14.67
2022-12-18T19:44:15.841Z,9.73
2022-12-18T19:46:43.429Z,9.10
2022-12-18T19:49:10.668Z,15.63
2022-12-18T19:51:38.321Z,13.57
2022-12-18T19:54:05.362Z,15.20
2022-12-18T19:56:33.765Z,11.50
2022-12-18T19:59:00.940Z,9.40
2022-12-18T20:01:28.932Z,11.10
2022-12-18T20:03:56.897Z,8.50
2022-12-18T20:06:32.560Z,11.00
2022-12-18T20:09:03.001Z,11.70
2022-12-18T20:11:30.539Z,9.70
2022-12-18T20:14:01.974Z,14.00
2022-12-18T20:16:28.893Z,14.70
2022-12-18T20:18:56.909Z,11.07
2022-12-18T20:21:23.987Z,17.00
2022-12-18T20:23:50.622Z,12.47
2022-12-18T20:26:17.275Z,7.43
2022-12-18T20:28:43.913Z,11.90
2022-12-18T20:31:13.499Z,7.60
2022-12-18T20:33:41.253Z,5.53
2022-12-18T20:36:11.357Z,7.47
2022-12-18T20:38:39.175Z,11.87
2022-12-18T20:41:12.035Z,9.77
2022-12-18T20:43:39.397Z,9.23
2022-12-18T20:46:09.159Z,5.27
2022-12-18T20:48:36.136Z,6.30
2022-12-18T20:51:11.669Z,8.17
2022-12-18T20:53:40.718Z,14.23
2022-12-18T20:56:13.109Z,14.63
2022-12-18T20:58:43.228Z,16.10
2022-12-18T21:01:15.548Z,15.90
2022-12-18T21:03:44.144Z,14.83
2022-12-18T21:06:10.903Z,14.53
2022-12-18T21:08:38.272Z,12.57
2022-12-18T21:11:40.309Z,9.87
2022-12-18T21:14:10.675Z,17.63
2022-12-18T21:16:37.735Z,6.00
2022-12-18T21:19:04.384Z,7.13
2022-12-18T21:21:37.220Z,14.80
2022-12-18T21:24:06.860Z,8.90
2022-12-18T21:26:33.771Z,23.83
2022-12-18T21:29:02.862Z,25.17
2022-12-18T21:31:31.900Z,27.53
2022-12-18T21:34:01.851Z,23.00
2022-12-18T21:36:30.063Z,11.27
2022-12-18T21:38:57.636Z,11.73
2022-12-18T21:41:44.248Z,11.33
2022-12-18T21:44:16.416Z,15.50
2022-12-18T21:46:48.834Z,9.30
2022-12-18T21:49:21.283Z,12.07
2022-12-18T21:51:50.112Z,14.80
2022-12-18T21:54:17.218Z,8.57
2022-12-18T21:56:54.865Z,11.93
2022-12-18T21:59:29.945Z,19.10
2022-12-18T22:01:59.055Z,11.97
2022-12-18T22:04:26.677Z,11.07
2022-12-18T22:06:56.309Z,10.33
2022-12-18T22:09:24.570Z,18.37
2022-12-18T22:11:51.650Z,22.57
2022-12-18T22:14:18.316Z,29.77
2022-12-18T22:16:44.996Z,14.23
2022-12-18T22:19:12.456Z,14.47
2022-12-18T22:21:43.703Z,16.70
2022-12-18T22:24:19.615Z,21.17
2022-12-18T22:26:47.180Z,23.27
2022-12-18T22:29:35.856Z,16.73
2022-12-18T22:32:03.380Z,24.77
2022-12-18T22:34:34.244Z,28.33
2022-12-18T22:37:02.977Z,14.67
2022-12-18T22:39:30.562Z,21.40
2022-12-18T22:41:57.988Z,27.07
2022-12-18T22:44:24.612Z,23.80
2022-12-18T22:47:05.531Z,18.60
2022-12-18T22:49:33.492Z,26.13
2022-12-18T22:52:01.901Z,21.17
2022-12-18T22:54:28.479Z,17.50
2022-12-18T22:56:55.587Z,28.33
2022-12-18T22:59:23.271Z,29.70
2022-12-18T23:01:54.231Z,27.90
2022-12-18T23:04:36.427Z,14.93
2022-12-18T23:07:04.417Z,25.53
2022-12-18T23:09:31.010Z,12.23
2022-12-18T23:11:57.588Z,16.23
2022-12-18T23:14:24.235Z,17.63
2022-12-18T23:16:52.242Z,17.87
2022-12-18T23:19:20.263Z,23.50
2022-12-18T23:21:47.092Z,12.93
2022-12-18T23:24:13.735Z,13.90
2022-12-18T23:26:40.577Z,17.97
2022-12-18T23:29:07.444Z,19.07
2022-12-18T23:31:36.573Z,17.47
2022-12-18T23:34:04.084Z,16.60
2022-12-18T23:36:33.122Z,13.53
2022-12-18T23:39:29.017Z,16.93
2022-12-18T23:41:59.017Z,19.57
2022-12-18T23:44:26.157Z,16.43
2022-12-18T23:46:52.913Z,20.63
2022-12-18T23:49:19.642Z,19.43
2022-12-18T23:51:46.221Z,17.37
2022-12-18T23:54:12.928Z,19.63
2022-12-18T23:56:39.619Z,18.13
2022-12-18T23:59:06.297Z,19.40
